πŸ“Š DonnΓ©es MΓ©tΓ©o - Bordeaux

Total mesures

14,360

TempΓ©rature moyenne

18.8Β°C

Temp. Min/Max

2.9Β° / 42.4Β°

HumiditΓ© moyenne

64.9%

Pression moyenne

1014.7 hPa
enregistrements
ID Date/Heure Temp (Β°C) HumiditΓ© (%) Pression (hPa) Tendance LuminositΓ© (lux) Situation
12860 13/08/2026 15:15 40.6 18.0 1,015.1 β†’ Stable 74,904 chaleur-seche
12859 13/08/2026 14:45 40.4 19.0 1,015.7 β†’ Stable 83,616 chaleur-seche
12858 13/08/2026 14:15 40.2 19.0 1,015.7 β†’ Stable 89,820 chaleur-seche
12857 13/08/2026 13:45 40.0 20.0 1,016.1 β†’ Stable 95,832 chaleur-seche
12856 13/08/2026 13:15 39.7 20.0 1,016.3 β†’ Stable 99,348 chaleur-seche
12855 13/08/2026 12:45 39.4 21.0 1,016.8 β†’ Stable 101,856 chaleur-seche
12854 13/08/2026 12:15 39.0 22.0 1,016.8 β†’ Stable 102,504 chaleur-seche
12853 13/08/2026 11:45 38.4 25.0 1,017.2 β†’ Stable 101,484 chaleur-seche
12852 13/08/2026 11:15 37.7 28.0 1,017.2 β†’ Stable 99,264 chaleur-seche
12851 13/08/2026 10:45 36.9 32.0 1,017.9 β†’ Stable 95,088 chaleur-seche
12850 13/08/2026 10:15 35.6 35.0 1,017.9 β†’ Stable 89,724 chaleur-seche
12849 13/08/2026 09:45 34.6 37.0 1,017.7 β†’ Stable 82,500 chaleur-seche
12848 13/08/2026 09:15 33.3 39.0 1,017.7 β†’ Stable 75,096 chaleur-seche
12847 13/08/2026 08:45 32.2 40.0 1,017.8 β†’ Stable 65,376 conditions-neutrales-ou-non-definies
12846 13/08/2026 08:15 29.4 43.0 1,017.8 β†’ Stable 56,208 conditions-neutrales-ou-non-definies
12845 13/08/2026 07:45 28.1 46.0 1,017.8 β†’ Stable 45,180 confortablement-chaud (approx.)
12844 13/08/2026 07:15 27.2 50.0 1,017.8 β†’ Stable 35,280 confortablement-chaud (approx.)
12843 13/08/2026 06:45 26.0 55.0 1,017.7 β†’ Stable 23,976 confortablement-chaud (approx.)
12842 13/08/2026 06:15 24.4 62.0 1,017.7 β†’ Stable 14,172 confortablement-chaud (approx.)
12841 13/08/2026 05:45 23.6 64.0 1,017.4 β†’ Stable 5,460 conditions-neutrales-ou-non-definies
12840 13/08/2026 05:15 23.9 66.0 1,017.4 β†’ Stable 0 conditions-neutrales-ou-non-definies
12839 13/08/2026 04:45 23.9 66.0 1,016.8 β†’ Stable 0 conditions-neutrales-ou-non-definies
12838 13/08/2026 04:15 24.2 66.0 1,016.8 β†’ Stable 0 confortablement-chaud (approx.)
12837 13/08/2026 03:45 24.3 65.0 1,016.8 β†’ Stable 0 confortablement-chaud (approx.)
12836 13/08/2026 03:15 25.0 63.0 1,016.8 β†’ Stable 0 confortablement-chaud (approx.)
12835 13/08/2026 02:45 25.2 62.0 1,016.6 β†’ Stable 0 confortablement-chaud (approx.)
12834 13/08/2026 02:15 25.2 63.0 1,016.6 β†’ Stable 0 confortablement-chaud (approx.)
12833 13/08/2026 01:45 25.5 61.0 1,016.7 β†’ Stable 0 confortablement-chaud (approx.)
12832 13/08/2026 01:15 26.3 56.0 1,016.7 β†’ Stable 0 confortablement-chaud (approx.)
12831 13/08/2026 00:45 26.6 55.0 1,016.7 β†’ Stable 0 confortablement-chaud (approx.)
12830 13/08/2026 00:15 26.9 54.0 1,016.7 β†’ Stable 0 confortablement-chaud (approx.)
12829 12/08/2026 23:45 27.2 54.0 1,016.8 β†’ Stable 0 confortablement-chaud (approx.)
12828 12/08/2026 23:15 27.6 52.0 1,016.8 β†’ Stable 0 confortablement-chaud (approx.)
12827 12/08/2026 22:45 28.0 51.0 1,016.2 β†’ Stable 0 confortablement-chaud (approx.)
12826 12/08/2026 22:15 28.6 47.0 1,016.2 β†’ Stable 0 confortablement-chaud (approx.)
12825 12/08/2026 21:45 29.3 44.0 1,015.9 β†’ Stable 0 conditions-neutrales-ou-non-definies
12824 12/08/2026 21:15 29.9 41.0 1,015.9 β†’ Stable 0 conditions-neutrales-ou-non-definies
12823 12/08/2026 20:45 30.9 38.0 1,015.5 β†’ Stable 0 chaleur-seche
12822 12/08/2026 20:15 32.8 31.0 1,015.5 β†’ Stable 0 chaleur-seche
12821 12/08/2026 19:45 33.6 28.0 1,015.0 β†’ Stable 0 chaleur-seche
12820 12/08/2026 19:15 34.8 25.0 1,015.1 β†’ Stable 0 chaleur-seche
12819 12/08/2026 18:45 35.9 25.0 1,014.8 β†’ Stable 1,764 chaleur-seche
12818 12/08/2026 18:15 37.0 23.0 1,014.8 β†’ Stable 4,632 chaleur-seche
12817 12/08/2026 17:45 38.3 21.0 1,014.7 β†’ Stable 22,128 chaleur-seche
12816 12/08/2026 17:15 38.8 20.0 1,014.7 β†’ Stable 37,320 chaleur-seche
12815 12/08/2026 16:45 38.9 20.0 1,014.7 β†’ Stable 46,296 chaleur-seche
12814 12/08/2026 16:15 38.9 20.0 1,014.7 β†’ Stable 56,484 chaleur-seche
12813 12/08/2026 15:45 39.0 20.0 1,014.9 β†’ Stable 66,480 chaleur-seche
12812 12/08/2026 15:15 38.9 21.0 1,014.9 β†’ Stable 73,980 chaleur-seche
12811 12/08/2026 14:45 38.7 21.0 1,015.3 β†’ Stable 82,680 chaleur-seche
12810 12/08/2026 14:15 38.6 21.0 1,015.3 β†’ Stable 89,820 chaleur-seche
12809 12/08/2026 13:45 38.3 22.0 1,015.8 β†’ Stable 94,080 chaleur-seche
12808 12/08/2026 13:15 38.2 21.0 1,015.8 β†’ Stable 99,816 chaleur-seche
12807 12/08/2026 12:45 37.9 22.0 1,016.1 β†’ Stable 102,684 chaleur-seche
12806 12/08/2026 12:15 37.5 23.0 1,016.1 β†’ Stable 103,428 chaleur-seche
12805 12/08/2026 11:45 37.0 25.0 1,016.3 β†’ Stable 102,312 chaleur-seche
12804 12/08/2026 11:15 36.3 28.0 1,016.4 β†’ Stable 99,996 chaleur-seche
12803 12/08/2026 10:45 35.6 32.0 1,016.4 β†’ Stable 95,652 chaleur-seche
12802 12/08/2026 10:15 34.8 34.0 1,016.4 β†’ Stable 90,648 chaleur-seche
12801 12/08/2026 09:45 33.8 39.0 1,016.4 β†’ Stable 82,968 chaleur-seche
12800 12/08/2026 09:15 32.5 44.0 1,016.4 β†’ Stable 75,744 confortablement-chaud (approx.)
12799 12/08/2026 08:45 31.0 49.0 1,016.5 β†’ Stable 65,928 conditions-neutrales-ou-non-definies
12798 12/08/2026 08:15 28.8 55.0 1,016.5 β†’ Stable 56,940 confortablement-chaud (approx.)
12797 12/08/2026 07:45 27.5 59.0 1,016.5 β†’ Stable 45,648 confortablement-chaud (approx.)
12796 12/08/2026 07:15 25.0 69.0 1,016.5 β†’ Stable 35,832 confortablement-chaud (approx.)
12795 12/08/2026 06:45 23.8 74.0 1,016.4 β†’ Stable 24,348 pluvieux-gris (approx.)
12794 12/08/2026 06:15 22.6 77.0 1,016.4 β†’ Stable 14,532 pluvieux-gris (approx.)
12793 12/08/2026 05:45 22.2 72.0 1,016.1 β†’ Stable 5,832 pluvieux-gris (approx.)
12792 12/08/2026 05:15 22.9 67.0 1,016.1 β†’ Stable 0 frais-stable
12791 12/08/2026 04:45 22.9 67.0 1,015.3 β†’ Stable 0 frais-stable
12790 12/08/2026 04:15 23.3 68.0 1,015.3 β†’ Stable 0 conditions-neutrales-ou-non-definies
12789 12/08/2026 03:45 23.5 69.0 1,015.2 β†’ Stable 0 conditions-neutrales-ou-non-definies
12788 12/08/2026 03:15 23.8 70.0 1,015.2 β†’ Stable 0 pluvieux-gris (approx.)
12787 12/08/2026 02:45 24.1 70.0 1,014.9 β†’ Stable 0 pluvieux-gris (approx.)
12786 12/08/2026 02:15 24.7 66.0 1,014.9 β†’ Stable 0 confortablement-chaud (approx.)
12785 12/08/2026 01:45 24.7 66.0 1,015.0 β†’ Stable 0 confortablement-chaud (approx.)
12784 12/08/2026 01:15 25.0 65.0 1,014.8 β†’ Stable 0 confortablement-chaud (approx.)
12783 12/08/2026 00:45 25.2 63.0 1,015.0 β†’ Stable 0 confortablement-chaud (approx.)
12782 12/08/2026 00:15 25.4 61.0 1,015.0 β†’ Stable 0 confortablement-chaud (approx.)
12781 11/08/2026 23:45 25.9 58.0 1,014.8 β†’ Stable 0 confortablement-chaud (approx.)
12780 11/08/2026 23:15 26.6 56.0 1,014.8 β†’ Stable 0 confortablement-chaud (approx.)
12779 11/08/2026 22:45 27.3 53.0 1,014.5 β†’ Stable 0 confortablement-chaud (approx.)
12778 11/08/2026 22:15 27.8 51.0 1,014.5 β†’ Stable 0 confortablement-chaud (approx.)
12777 11/08/2026 21:45 28.5 49.0 1,014.1 β†’ Stable 0 confortablement-chaud (approx.)
12776 11/08/2026 21:15 29.2 46.0 1,014.1 β†’ Stable 0 conditions-neutrales-ou-non-definies
12775 11/08/2026 20:45 29.7 46.0 1,013.6 β†’ Stable 0 conditions-neutrales-ou-non-definies
12774 11/08/2026 20:15 31.0 41.0 1,013.6 β†’ Stable 0 conditions-neutrales-ou-non-definies
12773 11/08/2026 19:45 31.5 41.0 1,012.8 β†’ Stable 0 conditions-neutrales-ou-non-definies
12772 11/08/2026 19:15 34.3 29.0 1,012.8 β†’ Stable 0 chaleur-seche
12771 11/08/2026 18:45 35.0 28.0 1,012.7 β†’ Stable 6,108 chaleur-seche
12770 11/08/2026 18:15 35.7 24.0 1,012.7 β†’ Stable 15,828 chaleur-seche
12769 11/08/2026 17:45 36.0 24.0 1,012.6 β†’ Stable 25,644 chaleur-seche
12768 11/08/2026 17:15 36.4 24.0 1,012.6 β†’ Stable 35,556 chaleur-seche
12767 11/08/2026 16:45 36.6 25.0 1,012.7 β†’ Stable 46,944 chaleur-seche
12766 11/08/2026 16:15 36.8 25.0 1,012.7 β†’ Stable 56,856 chaleur-seche
12765 11/08/2026 15:45 36.7 25.0 1,013.1 β†’ Stable 65,736 chaleur-seche
12764 11/08/2026 15:15 36.6 26.0 1,013.1 β†’ Stable 75,828 chaleur-seche
12763 11/08/2026 14:45 36.0 26.0 1,013.7 β†’ Stable 84,720 chaleur-seche
12762 11/08/2026 14:15 35.9 29.0 1,013.7 β†’ Stable 91,020 chaleur-seche
12761 11/08/2026 13:45 35.5 30.0 1,014.2 β†’ Stable 97,032 chaleur-seche